createdAt,value
2016-02-19T00:02:15.333Z,1.7
2016-02-19T00:05:32.232Z,1.7
2016-02-19T00:08:39.852Z,1.7
2016-02-19T00:11:42.391Z,1.7
2016-02-19T00:14:54.524Z,1.7
2016-02-19T00:18:06.782Z,1.6
2016-02-19T00:21:19.306Z,1.7
2016-02-19T00:24:36.877Z,1.7
2016-02-19T00:27:40.169Z,1.6
2016-02-19T00:30:50.103Z,1.6
2016-02-19T00:33:59.923Z,1.7
2016-02-19T00:37:10.337Z,1.7
2016-02-19T00:40:21.236Z,1.6
2016-02-19T00:43:36.744Z,1.6
2016-02-19T00:46:46.177Z,1.6
2016-02-19T00:49:59.294Z,1.6
2016-02-19T00:53:10.740Z,1.6
2016-02-19T00:56:23.857Z,1.6
2016-02-19T00:59:36.865Z,1.6
2016-02-19T01:02:48.954Z,1.7
2016-02-19T01:06:01.940Z,1.7
2016-02-19T01:09:11.729Z,1.6
2016-02-19T01:12:21.159Z,1.7
2016-02-19T01:15:37.276Z,1.6
2016-02-19T01:18:40.350Z,1.6
2016-02-19T01:21:53.296Z,1.6
2016-02-19T01:25:06.585Z,1.6
2016-02-19T01:28:19.358Z,1.6
2016-02-19T01:31:35.773Z,1.5
2016-02-19T01:34:38.921Z,1.5
2016-02-19T01:37:51.916Z,1.5
2016-02-19T01:41:01.785Z,1.5
2016-02-19T01:44:11.199Z,1.5
2016-02-19T01:47:23.973Z,1.5
2016-02-19T01:50:36.699Z,1.5
2016-02-19T01:53:49.757Z,1.5
2016-02-19T01:57:00.327Z,1.5
2016-02-19T02:00:13.147Z,1.6
2016-02-19T02:03:31.374Z,1.6
2016-02-19T02:06:39.491Z,1.6
2016-02-19T02:09:42.502Z,1.6
2016-02-19T02:12:55.652Z,1.6
2016-02-19T02:16:08.863Z,1.6
2016-02-19T02:19:17.746Z,1.6
2016-02-19T02:22:37.785Z,1.5
2016-02-19T02:25:41.342Z,1.5
2016-02-19T02:28:54.320Z,1.5
2016-02-19T02:32:05.640Z,1.5
2016-02-19T02:35:18.461Z,1.5
2016-02-19T02:38:34.437Z,1.5
2016-02-19T02:41:37.695Z,1.4
2016-02-19T02:44:47.756Z,1.4
2016-02-19T02:48:00.895Z,1.4
2016-02-19T02:51:13.748Z,1.5
2016-02-19T02:54:30.975Z,1.5
2016-02-19T02:57:38.992Z,1.5
2016-02-19T03:00:42.096Z,1.4
2016-02-19T03:03:52.135Z,1.4
2016-02-19T03:07:02.034Z,1.4
2016-02-19T03:10:15.073Z,1.4
2016-02-19T03:13:33.143Z,1.4
2016-02-19T03:16:36.339Z,1.4
2016-02-19T03:19:46.990Z,1.3
2016-02-19T03:22:59.842Z,1.3
2016-02-19T03:26:12.256Z,1.2
2016-02-19T03:29:24.952Z,1.2
2016-02-19T03:32:36.679Z,1.2
2016-02-19T03:35:49.268Z,1.2
2016-02-19T03:39:02.245Z,1.2
2016-02-19T03:42:15.174Z,1.3
2016-02-19T03:45:30.963Z,1.2
2016-02-19T03:48:39.082Z,1.2
2016-02-19T03:51:42.029Z,1.1
2016-02-19T03:54:51.865Z,1.1
2016-02-19T03:58:04.843Z,1.2
2016-02-19T04:01:17.789Z,1.2
2016-02-19T04:04:35.812Z,1
2016-02-19T04:07:38.695Z,1
2016-02-19T04:10:49.330Z,1
2016-02-19T04:14:02.183Z,1.1
2016-02-19T04:17:12.399Z,1.1
2016-02-19T04:20:25.157Z,1.2
2016-02-19T04:23:37.618Z,1.1
2016-02-19T04:26:46.550Z,1.2
2016-02-19T04:29:56.543Z,1.2
2016-02-19T04:33:07.348Z,1.2
2016-02-19T04:36:20.153Z,1.2
2016-02-19T04:39:37.723Z,1.2
2016-02-19T04:42:40.497Z,1.2
2016-02-19T04:45:53.336Z,1.2
2016-02-19T04:49:05.812Z,1.2
2016-02-19T04:52:18.462Z,1.2
2016-02-19T04:55:35.813Z,1.2
2016-02-19T04:58:38.650Z,1.2
2016-02-19T05:01:49.503Z,1.2
2016-02-19T05:05:00.386Z,1.2
2016-02-19T05:08:11.099Z,1.1
2016-02-19T05:11:20.935Z,1.1
2016-02-19T05:14:38.677Z,1.1
2016-02-19T05:17:41.576Z,1.1
2016-02-19T05:20:54.400Z,1.1
2016-02-19T05:24:04.455Z,1.1
2016-02-19T05:27:17.325Z,1.1
2016-02-19T05:30:32.629Z,1.1
2016-02-19T05:33:40.443Z,1.1
2016-02-19T05:36:41.118Z,1
2016-02-19T05:39:55.891Z,1
2016-02-19T05:43:08.431Z,1.1
2016-02-19T05:46:21.455Z,1
2016-02-19T05:49:39.150Z,1
2016-02-19T05:52:41.971Z,1
2016-02-19T05:55:52.060Z,0.9
2016-02-19T05:59:01.911Z,1
2016-02-19T06:02:11.810Z,1
2016-02-19T06:05:23.099Z,0.9
2016-02-19T06:08:39.005Z,0.9
2016-02-19T06:11:41.873Z,0.9
2016-02-19T06:14:54.602Z,0.9
2016-02-19T06:18:06.923Z,0.9
2016-02-19T06:21:19.758Z,0.9
2016-02-19T06:24:35.579Z,0.8
2016-02-19T06:27:38.384Z,0.9
2016-02-19T06:30:50.707Z,0.9
2016-02-19T06:34:03.528Z,0.9
2016-02-19T06:37:13.973Z,1
2016-02-19T06:40:24.482Z,1
2016-02-19T06:43:37.036Z,1
2016-02-19T06:46:49.736Z,1.1
2016-02-19T06:50:00.571Z,1.1
2016-02-19T06:53:15.469Z,1.1
2016-02-19T06:56:25.275Z,1.1
2016-02-19T06:59:37.924Z,1.2
2016-02-19T07:02:50.729Z,1.3
2016-02-19T07:06:01.010Z,1.3
2016-02-19T07:09:13.784Z,1.4
2016-02-19T07:12:31.745Z,1.4
2016-02-19T07:15:39.471Z,1.5
2016-02-19T07:18:42.369Z,1.5
2016-02-19T07:21:53.144Z,1.6
2016-02-19T07:25:03.451Z,1.6
2016-02-19T07:28:16.163Z,1.6
2016-02-19T07:31:31.827Z,1.7
2016-02-19T07:34:39.757Z,1.8
2016-02-19T07:37:42.609Z,1.8
2016-02-19T07:40:55.401Z,1.8
2016-02-19T07:44:08.190Z,1.9
2016-02-19T07:47:20.448Z,1.9
2016-02-19T07:50:37.659Z,2
2016-02-19T07:53:40.511Z,2
2016-02-19T07:56:53.113Z,2
2016-02-19T08:00:02.702Z,2.1
2016-02-19T08:03:13.866Z,2.1
2016-02-19T08:06:31.582Z,2.2
2016-02-19T08:09:39.528Z,2.2
2016-02-19T08:12:42.458Z,2.2
2016-02-19T08:15:55.313Z,2.3
2016-02-19T08:19:08.132Z,2.4
2016-02-19T08:22:20.813Z,2.6
2016-02-19T08:25:36.305Z,2.6
2016-02-19T08:28:39.485Z,2.8
2016-02-19T08:31:52.290Z,3
2016-02-19T08:35:03.364Z,3.2
2016-02-19T08:38:13.809Z,3.4
2016-02-19T08:41:24.067Z,3.6
2016-02-19T08:44:36.872Z,3.8
2016-02-19T08:47:47.489Z,3.9
2016-02-19T08:51:00.407Z,4
2016-02-19T08:54:13.540Z,4
2016-02-19T08:57:24.673Z,4
2016-02-19T09:00:37.665Z,4
2016-02-19T09:03:50.532Z,3.9
2016-02-19T09:07:02.934Z,4
2016-02-19T09:10:16.051Z,4
2016-02-19T09:13:33.934Z,4.1
2016-02-19T09:16:37.130Z,4.2
2016-02-19T09:19:50.185Z,4.3
2016-02-19T09:23:00.805Z,4.7
2016-02-19T09:26:13.797Z,5.2
2016-02-19T09:29:32.009Z,5.5
2016-02-19T09:35:43.196Z,5.6
2016-02-19T09:38:53.987Z,5.7
2016-02-19T09:42:06.903Z,5.8
2016-02-19T09:45:19.911Z,5.8
2016-02-19T09:48:37.841Z,5.8
2016-02-19T09:51:41.114Z,5.9
2016-02-19T09:54:54.264Z,6.3
2016-02-19T09:58:03.868Z,6.9
2016-02-19T10:01:15.079Z,7.8
2016-02-19T10:04:32.196Z,8.4
2016-02-19T10:07:40.737Z,8.8
2016-02-19T10:10:44.431Z,8.8
2016-02-19T10:13:55.018Z,8.6
2016-02-19T10:17:08.309Z,8.7
2016-02-19T10:20:21.692Z,8.7
2016-02-19T10:23:40.014Z,8.7
2016-02-19T10:26:43.709Z,8.5
2016-02-19T10:29:55.795Z,8.3
2016-02-19T10:33:06.822Z,8.4
2016-02-19T10:36:22.595Z,8.6
2016-02-19T10:39:36.134Z,8.8
2016-02-19T10:42:49.002Z,8.8
2016-02-19T10:45:59.653Z,8.6
2016-02-19T10:49:10.599Z,8.5
2016-02-19T10:52:23.998Z,8.4
2016-02-19T10:55:40.194Z,8.3
2016-02-19T10:58:43.716Z,8.3
2016-02-19T11:01:57.163Z,8.2
2016-02-19T11:05:08.579Z,8.1
2016-02-19T11:08:21.743Z,7.9
2016-02-19T11:11:38.267Z,7.7
2016-02-19T11:14:41.869Z,7.6
2016-02-19T11:17:55.050Z,7.6
2016-02-19T11:21:06.106Z,7.6
2016-02-19T11:24:19.239Z,7.7
2016-02-19T11:27:35.529Z,7.6
2016-02-19T11:30:38.959Z,7.6
2016-02-19T11:33:50.435Z,7.6
2016-02-19T11:37:01.057Z,7.5
2016-02-19T11:40:12.065Z,7.4
2016-02-19T11:43:25.790Z,7.4
2016-02-19T11:46:39.784Z,7.3
2016-02-19T11:49:43.229Z,7.3
2016-02-19T11:52:56.564Z,7
2016-02-19T11:56:05.654Z,6.8
2016-02-19T11:59:21.521Z,6.8
2016-02-19T12:02:40.045Z,6.9
2016-02-19T12:05:43.585Z,6.8
2016-02-19T12:08:54.358Z,6.7
2016-02-19T12:12:07.198Z,6.5
2016-02-19T12:15:20.409Z,6.4
2016-02-19T12:18:38.542Z,6.3
2016-02-19T12:21:41.831Z,6.2
2016-02-19T12:24:54.979Z,6
2016-02-19T12:28:07.974Z,5.9
2016-02-19T12:31:21.138Z,5.9
2016-02-19T12:34:37.677Z,5.8
2016-02-19T12:37:40.936Z,5.7
2016-02-19T12:40:54.179Z,5.7
2016-02-19T12:44:05.751Z,5.7
2016-02-19T12:47:16.275Z,5.8
2016-02-19T12:50:34.236Z,5.8
2016-02-19T12:53:37.635Z,5.6
2016-02-19T12:56:50.377Z,5.6
2016-02-19T13:00:00.436Z,5.5
2016-02-19T13:03:10.880Z,5.4
2016-02-19T13:06:21.779Z,5.2
2016-02-19T13:09:37.053Z,5.1
2016-02-19T13:12:37.983Z,5.3
2016-02-19T13:15:53.381Z,5.2
2016-02-19T13:19:04.173Z,5.1
2016-02-19T13:22:14.056Z,4.9
2016-02-19T13:25:32.158Z,4.7
2016-02-19T13:28:40.463Z,4.7
2016-02-19T13:31:43.721Z,4.8
2016-02-19T13:34:53.355Z,4.8
2016-02-19T13:38:08.490Z,4.8
2016-02-19T13:41:20.593Z,4.7
2016-02-19T13:44:36.787Z,4.6
2016-02-19T13:47:40.170Z,4.6
2016-02-19T13:50:49.898Z,4.6
2016-02-19T13:54:03.096Z,4.7
2016-02-19T13:57:16.463Z,4.8
2016-02-19T14:00:34.518Z,4.6
2016-02-19T14:03:35.901Z,4.7
2016-02-19T14:06:50.832Z,4.6
2016-02-19T14:10:04.498Z,4.6
2016-02-19T14:13:17.538Z,4.5
2016-02-19T14:16:35.702Z,4.5
2016-02-19T14:19:36.851Z,4.4
2016-02-19T14:22:52.093Z,4.4
2016-02-19T14:26:03.087Z,4.3
2016-02-19T14:29:16.183Z,4.3
2016-02-19T14:32:33.787Z,4.4
2016-02-19T14:35:36.937Z,4.4
2016-02-19T14:38:47.140Z,4.4
2016-02-19T14:41:59.971Z,4.4
2016-02-19T14:45:12.839Z,4.4
2016-02-19T14:48:25.908Z,4.5
2016-02-19T14:51:38.759Z,4.4
2016-02-19T14:54:51.267Z,4.5
2016-02-19T14:58:04.278Z,4.4
2016-02-19T15:01:12.223Z,4.4
2016-02-19T15:04:32.325Z,4.3
2016-02-19T15:07:40.552Z,4.3
2016-02-19T15:10:43.622Z,4.2
2016-02-19T15:13:56.334Z,4.1
2016-02-19T15:17:07.579Z,4.1
2016-02-19T15:20:20.492Z,4
2016-02-19T15:23:38.486Z,4
2016-02-19T15:26:41.681Z,4
2016-02-19T15:29:54.783Z,4
2016-02-19T15:33:06.075Z,3.9
2016-02-19T15:36:19.145Z,3.9
2016-02-19T15:39:37.263Z,3.9
2016-02-19T15:42:40.646Z,3.7
2016-02-19T15:45:53.654Z,3.7
2016-02-19T15:49:04.571Z,3.6
2016-02-19T15:52:17.704Z,3.6
2016-02-19T15:55:32.665Z,3.5
2016-02-19T15:58:36.017Z,3.5
2016-02-19T16:01:48.838Z,3.4
2016-02-19T16:05:01.846Z,3.3
2016-02-19T16:08:16.278Z,3.3
2016-02-19T16:11:25.052Z,3.3
2016-02-19T16:14:37.951Z,3.2
2016-02-19T16:17:49.240Z,3.2
2016-02-19T16:21:02.076Z,3.2
2016-02-19T16:24:14.853Z,3.2
2016-02-19T16:27:32.829Z,3.2
2016-02-19T16:30:34.056Z,3.2
2016-02-19T16:33:49.174Z,3.1
2016-02-19T16:37:02.572Z,3.1
2016-02-19T16:40:15.443Z,3.1
2016-02-19T16:43:31.436Z,3.1
2016-02-19T16:46:39.474Z,3.1
2016-02-19T16:49:42.607Z,3
2016-02-19T16:52:55.521Z,3
2016-02-19T16:56:07.782Z,3.1
2016-02-19T16:59:20.712Z,3.1
2016-02-19T17:02:38.861Z,3
2016-02-19T17:05:42.025Z,2.9
2016-02-19T17:08:55.049Z,2.9
2016-02-19T17:12:07.904Z,2.9
2016-02-19T17:15:20.825Z,2.8
2016-02-19T17:18:35.614Z,2.8
2016-02-19T17:21:36.670Z,2.8
2016-02-19T17:24:51.755Z,2.8
2016-02-19T17:28:04.875Z,2.8
2016-02-19T17:31:15.399Z,2.8
2016-02-19T17:34:33.469Z,2.8
2016-02-19T17:37:36.431Z,2.8
2016-02-19T17:40:49.440Z,2.8
2016-02-19T17:44:02.573Z,2.9
2016-02-19T17:47:13.176Z,2.8
2016-02-19T17:50:33.122Z,2.8
2016-02-19T17:53:36.193Z,2.8
2016-02-19T17:56:49.139Z,2.8
2016-02-19T17:59:59.053Z,2.8
2016-02-19T18:03:09.985Z,2.8
2016-02-19T18:06:25.102Z,2.7
2016-02-19T18:09:38.111Z,2.7
2016-02-19T18:12:50.932Z,2.7
2016-02-19T18:16:03.986Z,2.7
2016-02-19T18:19:14.387Z,2.6
2016-02-19T18:22:32.036Z,2.6
2016-02-19T18:25:40.092Z,2.5
2016-02-19T18:28:42.943Z,2.5
2016-02-19T18:31:54.389Z,2.5
2016-02-19T18:35:07.163Z,2.5
2016-02-19T18:38:18.596Z,2.5
2016-02-19T18:41:36.399Z,2.6
2016-02-19T18:44:39.424Z,2.6
2016-02-19T18:47:50.478Z,2.5
2016-02-19T18:51:00.268Z,2.5
2016-02-19T18:54:15.139Z,2.4
2016-02-19T18:57:25.881Z,2.4
2016-02-19T19:00:38.623Z,2.4
2016-02-19T19:03:51.256Z,2.4
2016-02-19T19:07:04.124Z,2.4
2016-02-19T19:10:16.993Z,2.4
2016-02-19T19:13:34.689Z,2.4
2016-02-19T19:16:37.698Z,2.3
2016-02-19T19:19:47.127Z,2.3
2016-02-19T19:22:57.667Z,2.3
2016-02-19T19:26:08.784Z,2.3
2016-02-19T19:29:21.513Z,2.3
2016-02-19T19:32:38.959Z,2.2
2016-02-19T19:35:41.795Z,2.3
2016-02-19T19:38:50.991Z,2.3
2016-02-19T19:42:03.844Z,2.3
2016-02-19T19:45:13.664Z,2.3
2016-02-19T19:48:31.221Z,2.2
2016-02-19T19:51:39.246Z,2.2
2016-02-19T19:54:42.160Z,2.2
2016-02-19T19:57:54.887Z,2.2
2016-02-19T20:01:06.425Z,2.2
2016-02-19T20:04:23.325Z,2.2
2016-02-19T20:07:36.738Z,2.2
2016-02-19T20:10:39.684Z,2.2
2016-02-19T20:13:50.458Z,2.1
2016-02-19T20:17:03.154Z,2.1
2016-02-19T20:20:15.988Z,2.1
2016-02-19T20:23:33.153Z,2.1
2016-02-19T20:26:34.129Z,2.1
2016-02-19T20:29:48.921Z,2.1
2016-02-19T20:33:01.585Z,2.1
2016-02-19T20:36:14.453Z,2.1
2016-02-19T20:39:31.399Z,2.1
2016-02-19T20:42:39.315Z,2.1
2016-02-19T20:45:42.323Z,2.1
2016-02-19T20:48:55.128Z,2.1
2016-02-19T20:52:07.824Z,2.1
2016-02-19T20:55:20.832Z,2.1
2016-02-19T20:58:36.122Z,2.1
2016-02-19T21:01:39.129Z,2
2016-02-19T21:04:51.921Z,2
2016-02-19T21:08:04.882Z,2
2016-02-19T21:11:17.703Z,2
2016-02-19T21:14:35.601Z,2
2016-02-19T21:17:38.501Z,1.9
2016-02-19T21:20:51.449Z,2
2016-02-19T21:24:01.472Z,2
2016-02-19T21:27:11.981Z,2
2016-02-19T21:30:32.364Z,2
2016-02-19T21:33:39.841Z,2
2016-02-19T21:36:42.914Z,2
2016-02-19T21:39:55.000Z,2
2016-02-19T21:43:04.929Z,2
2016-02-19T21:46:17.782Z,2
2016-02-19T21:49:35.524Z,2
2016-02-19T21:52:38.407Z,1.9
2016-02-19T21:55:48.903Z,1.9
2016-02-19T21:58:58.614Z,1.9
2016-02-19T22:02:07.965Z,1.9
2016-02-19T22:05:23.035Z,1.9
2016-02-19T22:08:37.543Z,1.8
2016-02-19T22:11:40.490Z,1.8
2016-02-19T22:14:53.220Z,1.8
2016-02-19T22:18:06.336Z,1.7
2016-02-19T22:21:16.751Z,1.7
2016-02-19T22:24:34.430Z,1.8
2016-02-19T22:27:37.361Z,1.8
2016-02-19T22:30:49.934Z,1.8
2016-02-19T22:34:00.224Z,1.8
2016-02-19T22:37:15.279Z,1.8
2016-02-19T22:40:33.037Z,1.8
2016-02-19T22:43:40.885Z,1.8
2016-02-19T22:46:43.706Z,1.8
2016-02-19T22:49:53.576Z,1.8
2016-02-19T22:53:03.741Z,1.7
2016-02-19T22:56:18.467Z,1.7
2016-02-19T22:59:36.068Z,1.7
2016-02-19T23:02:38.890Z,1.7
2016-02-19T23:05:51.339Z,1.6
2016-02-19T23:09:01.894Z,1.6
2016-02-19T23:12:14.527Z,1.7
2016-02-19T23:15:32.269Z,1.7
2016-02-19T23:18:40.028Z,1.7
2016-02-19T23:21:43.160Z,1.7
2016-02-19T23:24:52.984Z,1.6
2016-02-19T23:28:05.789Z,1.6
2016-02-19T23:31:16.312Z,1.5
2016-02-19T23:34:33.814Z,1.4
2016-02-19T23:37:36.456Z,1.3
2016-02-19T23:40:49.183Z,1.1
2016-02-19T23:44:01.728Z,1.1
2016-02-19T23:47:12.591Z,1.2
2016-02-19T23:50:25.269Z,1.2
2016-02-19T23:53:37.963Z,1.3
2016-02-19T23:56:50.251Z,1.3
